createdAt,value
2023-01-02T00:01:56.564Z,2.70
2023-01-02T00:04:58.599Z,1.70
2023-01-02T00:08:01.032Z,4.50
2023-01-02T00:11:02.947Z,1.37
2023-01-02T00:14:05.389Z,1.20
2023-01-02T00:17:07.242Z,1.23
2023-01-02T00:20:09.881Z,0.73
2023-01-02T00:23:11.850Z,3.47
2023-01-02T00:26:13.837Z,1.07
2023-01-02T00:29:15.781Z,1.13
2023-01-02T00:32:17.774Z,0.80
2023-01-02T00:35:19.615Z,1.73
2023-01-02T00:38:21.598Z,0.80
2023-01-02T00:41:24.025Z,0.67
2023-01-02T00:44:26.809Z,1.17
2023-01-02T00:47:28.673Z,1.13
2023-01-02T00:50:30.709Z,1.07
2023-01-02T00:53:32.681Z,0.80
2023-01-02T00:56:34.630Z,0.60
2023-01-02T00:59:36.505Z,1.60
2023-01-02T01:02:38.934Z,0.73
2023-01-02T01:05:40.916Z,1.13
2023-01-02T01:08:42.920Z,1.57
2023-01-02T01:11:44.843Z,1.03
2023-01-02T01:14:47.055Z,1.10
2023-01-02T01:17:49.016Z,0.80
2023-01-02T01:20:51.046Z,2.00
2023-01-02T01:23:54.825Z,1.77
2023-01-02T01:26:56.829Z,0.60
2023-01-02T01:29:58.765Z,1.10
2023-01-02T01:33:00.720Z,0.90
2023-01-02T01:36:04.346Z,1.17
2023-01-02T01:39:07.335Z,1.10
2023-01-02T01:42:12.972Z,1.80
2023-01-02T01:45:16.134Z,1.03
2023-01-02T01:48:18.076Z,0.57
2023-01-02T01:51:20.995Z,0.67
2023-01-02T01:54:28.190Z,0.90
2023-01-02T01:57:52.608Z,0.40
2023-01-02T02:00:54.598Z,0.70
2023-01-02T02:03:57.086Z,2.73
2023-01-02T02:06:59.292Z,0.83
2023-01-02T02:10:06.610Z,0.83
2023-01-02T02:13:08.511Z,0.67
2023-01-02T02:16:11.032Z,1.73
2023-01-02T02:19:12.979Z,0.83
2023-01-02T02:22:49.032Z,1.83
2023-01-02T02:26:09.623Z,0.60
2023-01-02T02:29:12.061Z,0.40
2023-01-02T02:32:32.022Z,0.47
2023-01-02T02:36:14.574Z,1.27
2023-01-02T02:39:31.606Z,1.67
2023-01-02T02:42:45.807Z,0.53
2023-01-02T02:46:06.519Z,0.73
2023-01-02T02:49:14.934Z,1.70
2023-01-02T02:52:33.168Z,0.90
2023-01-02T02:55:54.832Z,1.73
2023-01-02T02:58:56.722Z,1.27
2023-01-02T03:01:58.821Z,0.50
2023-01-02T03:05:04.805Z,0.63
2023-01-02T03:08:18.171Z,0.50
2023-01-02T03:11:26.831Z,1.37
2023-01-02T03:14:34.208Z,0.90
2023-01-02T03:18:04.687Z,2.17
2023-01-02T03:21:31.362Z,0.60
2023-01-02T03:24:34.727Z,0.57
2023-01-02T03:27:40.615Z,0.53
2023-01-02T03:30:43.493Z,1.33
2023-01-02T03:34:00.327Z,0.90
2023-01-02T03:37:10.675Z,0.50
2023-01-02T03:40:21.060Z,0.80
2023-01-02T03:43:25.867Z,0.63
2023-01-02T03:46:50.269Z,0.70
2023-01-02T03:49:54.457Z,1.23
2023-01-02T03:52:56.565Z,3.30
2023-01-02T03:56:01.537Z,2.20
2023-01-02T03:59:04.032Z,0.60
2023-01-02T04:02:38.163Z,1.50
2023-01-02T04:05:45.873Z,0.70
2023-01-02T04:09:04.352Z,1.40
2023-01-02T04:12:12.983Z,2.80
2023-01-02T04:15:17.712Z,4.07
2023-01-02T04:18:29.913Z,2.80
2023-01-02T04:21:35.724Z,1.80
2023-01-02T04:24:40.904Z,4.50
2023-01-02T04:28:10.216Z,2.53
2023-01-02T04:31:20.051Z,2.10
2023-01-02T04:34:22.849Z,1.60
2023-01-02T04:37:34.061Z,7.10
2023-01-02T04:40:39.514Z,1.47
2023-01-02T04:43:42.030Z,1.37
2023-01-02T04:46:44.185Z,3.30
2023-01-02T04:49:46.970Z,1.27
2023-01-02T04:52:48.885Z,1.73
2023-01-02T04:55:56.651Z,1.40
2023-01-02T04:58:58.574Z,2.00
2023-01-02T05:02:00.646Z,1.93
2023-01-02T05:05:03.176Z,0.60
2023-01-02T05:08:09.331Z,5.90
2023-01-02T05:11:17.057Z,2.33
2023-01-02T05:14:19.518Z,2.63
2023-01-02T05:17:24.046Z,1.70
2023-01-02T05:20:26.013Z,3.73
2023-01-02T05:23:46.494Z,4.50
2023-01-02T05:26:49.050Z,1.27
2023-01-02T05:29:51.007Z,2.10
2023-01-02T05:32:53.416Z,3.30
2023-01-02T05:35:55.393Z,2.10
2023-01-02T05:38:57.611Z,4.87
2023-01-02T05:41:59.586Z,7.87
2023-01-02T05:45:01.616Z,6.50
2023-01-02T05:48:03.675Z,3.00
2023-01-02T05:51:07.297Z,6.60
2023-01-02T05:54:09.735Z,3.37
2023-01-02T05:57:11.742Z,4.40
2023-01-02T06:00:14.642Z,5.63
2023-01-02T06:03:16.905Z,8.70
2023-01-02T06:06:20.476Z,6.47
2023-01-02T06:09:23.029Z,7.23
2023-01-02T06:12:24.945Z,2.10
2023-01-02T06:15:26.899Z,6.00
2023-01-02T06:18:31.294Z,7.83
2023-01-02T06:21:33.483Z,4.30
2023-01-02T06:24:35.325Z,2.07
2023-01-02T06:27:37.963Z,1.47
2023-01-02T06:30:39.921Z,1.93
2023-01-02T06:33:42.028Z,0.83
2023-01-02T06:36:43.999Z,1.90
2023-01-02T06:39:46.000Z,1.30
2023-01-02T06:42:47.834Z,1.43
2023-01-02T06:45:50.566Z,1.27
2023-01-02T06:48:52.549Z,0.60
2023-01-02T06:51:54.550Z,1.23
2023-01-02T06:54:56.398Z,1.00
2023-01-02T06:58:03.265Z,1.30
2023-01-02T07:01:13.022Z,1.13
2023-01-02T07:04:17.230Z,1.10
2023-01-02T07:07:19.110Z,0.80
2023-01-02T07:10:21.105Z,0.60
2023-01-02T07:13:22.983Z,1.17
2023-01-02T07:16:25.789Z,0.73
2023-01-02T07:19:28.161Z,0.60
2023-01-02T07:22:30.175Z,0.77
2023-01-02T07:25:32.214Z,1.57
2023-01-02T07:28:35.279Z,0.80
2023-01-02T07:31:37.305Z,0.80
2023-01-02T07:34:39.191Z,0.97
2023-01-02T07:37:41.064Z,1.00
2023-01-02T07:40:43.260Z,0.77
2023-01-02T07:43:45.994Z,0.60
2023-01-02T07:46:48.149Z,4.27
2023-01-02T07:49:50.140Z,1.27
2023-01-02T07:52:52.141Z,1.17
2023-01-02T07:55:57.942Z,0.90
2023-01-02T07:59:00.743Z,1.90
2023-01-02T08:02:02.654Z,2.70
2023-01-02T08:05:05.169Z,0.80
2023-01-02T08:08:07.298Z,0.87
2023-01-02T08:11:18.614Z,2.50
2023-01-02T08:14:23.695Z,1.00
2023-01-02T08:17:25.958Z,3.13
2023-01-02T08:20:28.031Z,4.97
2023-01-02T08:23:30.533Z,2.70
2023-01-02T08:26:32.441Z,4.90
2023-01-02T08:29:36.699Z,6.30
2023-01-02T08:32:39.625Z,3.90
2023-01-02T08:35:42.052Z,2.83
2023-01-02T08:38:43.984Z,2.67
2023-01-02T08:41:45.884Z,2.40
2023-01-02T08:44:47.854Z,1.87
2023-01-02T08:47:49.968Z,3.30
2023-01-02T08:50:54.727Z,2.70
2023-01-02T08:53:56.697Z,2.83
2023-01-02T08:56:58.745Z,3.97
2023-01-02T09:00:00.758Z,11.70
2023-01-02T09:03:03.172Z,4.97
2023-01-02T09:06:05.299Z,5.33
2023-01-02T09:09:11.942Z,5.10
2023-01-02T09:12:15.030Z,6.63
2023-01-02T09:15:17.097Z,3.43
2023-01-02T09:18:23.073Z,6.70
2023-01-02T09:21:29.845Z,3.93
2023-01-02T09:24:32.305Z,4.30
2023-01-02T09:27:34.143Z,9.27
2023-01-02T09:30:36.032Z,6.80
2023-01-02T09:33:37.874Z,3.10
2023-01-02T09:36:39.976Z,2.37
2023-01-02T09:39:42.216Z,2.03
2023-01-02T09:42:44.738Z,3.03
2023-01-02T09:45:46.894Z,1.40
2023-01-02T09:48:48.783Z,4.33
2023-01-02T09:51:51.385Z,1.63
2023-01-02T09:54:53.367Z,4.30
2023-01-02T09:58:04.833Z,4.97
2023-01-02T10:01:12.590Z,3.70
2023-01-02T10:04:14.515Z,4.80
2023-01-02T10:07:39.731Z,3.33
2023-01-02T10:10:43.655Z,1.50
2023-01-02T10:14:29.870Z,1.20
2023-01-02T10:17:47.091Z,1.00
2023-01-02T10:21:16.300Z,1.20
2023-01-02T10:24:32.632Z,2.43
2023-01-02T10:27:39.915Z,15.77
2023-01-02T10:30:54.418Z,4.30
2023-01-02T10:33:59.782Z,5.50
2023-01-02T10:37:06.190Z,2.43
2023-01-02T10:40:10.516Z,1.83
2023-01-02T10:43:12.706Z,4.77
2023-01-02T10:46:15.176Z,3.03
2023-01-02T10:49:17.850Z,1.83
2023-01-02T10:52:43.352Z,1.53
2023-01-02T10:55:46.065Z,0.93
2023-01-02T10:58:51.209Z,26.83
2023-01-02T11:01:58.666Z,5.57
2023-01-02T11:05:03.611Z,5.07
2023-01-02T11:08:13.627Z,2.70
2023-01-02T11:11:17.830Z,5.57
2023-01-02T11:14:32.373Z,2.80
2023-01-02T11:17:41.781Z,2.37
2023-01-02T11:20:50.354Z,4.30
2023-01-02T11:23:59.438Z,0.90
2023-01-02T11:27:02.453Z,4.33
2023-01-02T11:30:07.812Z,5.33
2023-01-02T11:33:25.009Z,3.23
2023-01-02T11:36:27.893Z,2.67
2023-01-02T11:39:32.953Z,2.30
2023-01-02T11:43:03.160Z,1.60
2023-01-02T11:46:09.745Z,2.60
2023-01-02T11:49:18.041Z,3.17
2023-01-02T11:52:24.271Z,3.77
2023-01-02T11:55:46.643Z,1.23
2023-01-02T11:59:06.428Z,4.03
2023-01-02T12:02:40.387Z,1.83
2023-01-02T12:06:26.919Z,2.03
2023-01-02T12:10:03.405Z,2.43
2023-01-02T12:13:17.799Z,3.10
2023-01-02T12:16:22.945Z,4.10
2023-01-02T12:19:38.695Z,3.60
2023-01-02T12:22:59.470Z,1.03
2023-01-02T12:26:09.387Z,2.03
2023-01-02T12:29:46.604Z,1.30
2023-01-02T12:32:58.211Z,2.03
2023-01-02T12:36:13.012Z,1.50
2023-01-02T12:39:20.937Z,1.87
2023-01-02T12:42:52.043Z,2.57
2023-01-02T12:46:15.470Z,3.50
2023-01-02T12:49:35.743Z,1.83
2023-01-02T12:53:09.028Z,2.53
2023-01-02T12:56:18.575Z,1.37
2023-01-02T12:59:38.719Z,2.80
2023-01-02T13:03:21.809Z,2.10
2023-01-02T13:07:06.373Z,1.40
2023-01-02T13:10:17.295Z,2.20
2023-01-02T13:13:19.491Z,2.43
2023-01-02T13:16:25.502Z,2.40
2023-01-02T13:19:36.271Z,1.80
2023-01-02T13:23:03.367Z,1.53
2023-01-02T13:26:11.111Z,1.00
2023-01-02T13:29:13.094Z,1.30
2023-01-02T13:32:15.774Z,2.57
2023-01-02T13:35:18.296Z,1.27
2023-01-02T13:38:22.659Z,1.30
2023-01-02T13:41:26.484Z,1.20
2023-01-02T13:44:35.928Z,2.30
2023-01-02T13:47:38.715Z,2.47
2023-01-02T13:50:41.028Z,0.90
2023-01-02T13:53:53.807Z,1.20
2023-01-02T13:57:26.520Z,2.30
2023-01-02T14:00:37.341Z,1.13
2023-01-02T14:03:39.576Z,1.50
2023-01-02T14:06:53.661Z,1.67
2023-01-02T14:10:20.029Z,1.63
2023-01-02T14:13:30.129Z,3.27
2023-01-02T14:16:35.174Z,2.13
2023-01-02T14:19:37.902Z,2.33
2023-01-02T14:22:52.003Z,1.20
2023-01-02T14:25:54.066Z,2.67
2023-01-02T14:28:57.658Z,1.73
2023-01-02T14:32:06.252Z,1.43
2023-01-02T14:35:11.136Z,2.40
2023-01-02T14:38:17.402Z,3.17
2023-01-02T14:42:10.496Z,1.97
2023-01-02T14:45:20.736Z,2.37
2023-01-02T14:48:31.479Z,2.50
2023-01-02T14:51:37.178Z,2.93
2023-01-02T14:54:54.304Z,5.43
2023-01-02T14:57:57.535Z,1.57
2023-01-02T15:01:04.346Z,1.00
2023-01-02T15:04:23.248Z,3.00
2023-01-02T15:07:29.544Z,3.93
2023-01-02T15:10:31.711Z,3.70
2023-01-02T15:13:33.753Z,3.60
2023-01-02T15:17:00.523Z,2.90
2023-01-02T15:20:04.192Z,2.57
2023-01-02T15:23:06.588Z,1.87
2023-01-02T15:26:31.947Z,4.63
2023-01-02T15:29:35.675Z,3.90
2023-01-02T15:32:37.674Z,2.20
2023-01-02T15:35:39.658Z,3.70
2023-01-02T15:38:42.641Z,4.03
2023-01-02T15:41:47.652Z,2.27
2023-01-02T15:45:08.017Z,1.30
2023-01-02T15:48:10.036Z,3.10
2023-01-02T15:51:18.844Z,2.87
2023-01-02T15:54:29.073Z,2.53
2023-01-02T15:57:34.202Z,2.07
2023-01-02T16:00:40.229Z,2.00
2023-01-02T16:04:02.971Z,2.80
2023-01-02T16:07:23.761Z,2.70
2023-01-02T16:10:28.105Z,10.23
2023-01-02T16:13:56.005Z,2.47
2023-01-02T16:16:59.050Z,2.70
2023-01-02T16:20:04.280Z,1.37
2023-01-02T16:23:08.166Z,2.87
2023-01-02T16:26:14.275Z,4.40
2023-01-02T16:29:20.802Z,2.20
2023-01-02T16:32:30.999Z,2.33
2023-01-02T16:35:41.436Z,3.33
2023-01-02T16:38:49.668Z,2.20
2023-01-02T16:42:17.430Z,1.73
2023-01-02T16:45:19.982Z,1.87
2023-01-02T16:48:25.466Z,2.03
2023-01-02T16:51:30.297Z,3.33
2023-01-02T16:54:32.435Z,2.80
2023-01-02T16:57:34.382Z,2.70
2023-01-02T17:00:42.901Z,3.27
2023-01-02T17:03:45.784Z,3.67
2023-01-02T17:06:47.891Z,3.83
2023-01-02T17:09:50.722Z,2.93
2023-01-02T17:12:53.823Z,4.37
2023-01-02T17:15:56.612Z,3.60
2023-01-02T17:18:58.957Z,1.93
2023-01-02T17:22:01.364Z,1.90
2023-01-02T17:25:05.164Z,2.83
2023-01-02T17:28:08.537Z,2.17
2023-01-02T17:31:17.813Z,2.60
2023-01-02T17:34:21.808Z,1.93
2023-01-02T17:37:24.889Z,2.83
2023-01-02T17:40:27.503Z,3.43
2023-01-02T17:43:29.542Z,1.70
2023-01-02T17:47:09.105Z,2.23
2023-01-02T17:49:54.623Z,5.27
2023-01-02T17:52:56.584Z,6.07
2023-01-02T17:56:20.855Z,7.50
2023-01-02T17:59:23.625Z,10.50
2023-01-02T18:02:26.048Z,10.87
2023-01-02T18:05:28.128Z,11.37
2023-01-02T18:08:30.418Z,6.90
2023-01-02T18:11:32.673Z,3.47
2023-01-02T18:14:34.912Z,2.80
2023-01-02T18:17:36.828Z,5.53
2023-01-02T18:20:41.177Z,3.87
2023-01-02T18:23:43.668Z,4.10
2023-01-02T18:26:45.549Z,2.40
2023-01-02T18:29:59.749Z,3.60
2023-01-02T18:33:14.311Z,3.10
2023-01-02T18:36:21.700Z,3.60
2023-01-02T18:39:31.889Z,3.10
2023-01-02T18:42:34.891Z,2.10
2023-01-02T18:45:38.838Z,1.30
2023-01-02T18:48:41.023Z,0.90
2023-01-02T18:51:43.742Z,1.60
2023-01-02T18:54:48.091Z,2.03
2023-01-02T18:57:58.465Z,5.00
2023-01-02T19:01:01.120Z,4.50
2023-01-02T19:04:18.999Z,8.57
2023-01-02T19:07:33.367Z,13.30
2023-01-02T19:10:40.536Z,6.13
2023-01-02T19:13:42.435Z,4.70
2023-01-02T19:16:45.597Z,4.50
2023-01-02T19:19:47.952Z,2.83
2023-01-02T19:22:50.305Z,3.50
2023-01-02T19:25:53.058Z,3.50
2023-01-02T19:29:11.708Z,3.20
2023-01-02T19:32:29.926Z,6.80
2023-01-02T19:35:34.958Z,4.20
2023-01-02T19:38:36.831Z,3.03
2023-01-02T19:41:59.409Z,3.93
2023-01-02T19:45:04.406Z,6.20
2023-01-02T19:48:06.978Z,5.90
2023-01-02T19:51:08.859Z,5.60
2023-01-02T19:54:11.356Z,5.97
2023-01-02T19:57:18.556Z,5.97
2023-01-02T20:00:22.691Z,3.50
2023-01-02T20:03:24.599Z,2.33
2023-01-02T20:06:28.764Z,3.57
2023-01-02T20:09:30.717Z,4.77
2023-01-02T20:12:40.743Z,2.77
2023-01-02T20:15:42.670Z,7.17
2023-01-02T20:18:44.836Z,3.40
2023-01-02T20:21:46.965Z,4.47
2023-01-02T20:24:48.941Z,3.20
2023-01-02T20:27:51.761Z,3.77
2023-01-02T20:30:54.188Z,3.90
2023-01-02T20:33:56.164Z,4.13
2023-01-02T20:36:58.594Z,4.40
2023-01-02T20:40:00.888Z,7.63
2023-01-02T20:43:02.983Z,2.30
2023-01-02T20:46:05.011Z,3.97
2023-01-02T20:49:07.707Z,1.67
2023-01-02T20:52:10.092Z,2.37
2023-01-02T20:55:12.073Z,1.83
2023-01-02T20:58:13.959Z,13.97
2023-01-02T21:01:16.078Z,41.33
2023-01-02T21:04:22.722Z,9.63
2023-01-02T21:07:30.499Z,19.43
2023-01-02T21:10:32.737Z,22.23
2023-01-02T21:13:35.795Z,49.43
2023-01-02T21:16:37.756Z,44.63
2023-01-02T21:19:39.883Z,23.10
2023-01-02T21:22:41.797Z,4.97
2023-01-02T21:25:44.569Z,3.10
2023-01-02T21:28:50.290Z,2.90
2023-01-02T21:31:52.367Z,3.30
2023-01-02T21:34:54.643Z,1.90
2023-01-02T21:37:56.892Z,2.40
2023-01-02T21:41:21.993Z,14.70
2023-01-02T21:44:24.150Z,7.00
2023-01-02T21:47:26.077Z,11.47
2023-01-02T21:50:28.908Z,12.67
2023-01-02T21:53:30.907Z,3.93
2023-01-02T21:56:33.959Z,1.90
2023-01-02T21:59:36.015Z,1.77
2023-01-02T22:02:39.260Z,3.20
2023-01-02T22:05:41.586Z,3.57
2023-01-02T22:08:43.630Z,4.27
2023-01-02T22:11:58.284Z,2.07
2023-01-02T22:15:00.843Z,1.90
2023-01-02T22:18:02.816Z,3.10
2023-01-02T22:21:05.188Z,2.13
2023-01-02T22:24:07.432Z,4.77
2023-01-02T22:27:13.574Z,7.40
2023-01-02T22:30:22.936Z,10.37
2023-01-02T22:33:27.124Z,11.13
2023-01-02T22:36:31.732Z,6.30
2023-01-02T22:39:36.483Z,3.20
2023-01-02T22:43:02.936Z,7.53
2023-01-02T22:46:18.202Z,8.40
2023-01-02T22:49:22.970Z,6.10
2023-01-02T22:52:25.819Z,7.77
2023-01-02T22:55:28.413Z,5.23
2023-01-02T22:58:30.461Z,3.77
2023-01-02T23:01:36.528Z,7.17
2023-01-02T23:04:38.720Z,2.40
2023-01-02T23:07:40.931Z,3.13
2023-01-02T23:10:43.120Z,1.20
2023-01-02T23:13:45.234Z,2.93
2023-01-02T23:17:05.858Z,1.90
2023-01-02T23:20:08.703Z,3.43
2023-01-02T23:23:11.212Z,3.97
2023-01-02T23:26:17.194Z,4.63
2023-01-02T23:29:20.410Z,2.80
2023-01-02T23:32:23.684Z,2.90
2023-01-02T23:35:26.474Z,8.33
2023-01-02T23:38:28.796Z,3.63
2023-01-02T23:41:30.843Z,7.33
2023-01-02T23:44:32.697Z,5.00
2023-01-02T23:47:34.871Z,3.33
2023-01-02T23:50:36.870Z,5.53
2023-01-02T23:53:39.593Z,6.03
2023-01-02T23:56:43.416Z,3.90
2023-01-02T23:59:45.771Z,2.97
